createdAt,value
2022-08-17T00:00:44.085Z,98626.41
2022-08-17T00:03:22.343Z,98632.31
2022-08-17T00:05:57.565Z,98632.62
2022-08-17T00:08:29.964Z,98631.88
2022-08-17T00:10:58.862Z,98628.50
2022-08-17T00:13:35.925Z,98627.72
2022-08-17T00:16:11.362Z,98629.03
2022-08-17T00:19:01.527Z,98623.53
2022-08-17T00:21:56.430Z,98623.22
2022-08-17T00:24:17.712Z,98629.47
2022-08-17T00:26:46.240Z,98617.56
2022-08-17T00:29:19.326Z,98624.44
2022-08-17T00:31:48.605Z,98616.88
2022-08-17T00:34:16.860Z,98623.66
2022-08-17T00:36:44.681Z,98623.53
2022-08-17T00:39:12.802Z,98625.06
2022-08-17T00:41:42.296Z,98628.03
2022-08-17T00:44:12.377Z,98634.47
2022-08-17T00:46:42.562Z,98637.34
2022-08-17T00:49:12.431Z,98635.56
2022-08-17T00:51:55.111Z,98635.25
2022-08-17T00:54:27.891Z,98634.75
2022-08-17T00:57:03.102Z,98629.44
2022-08-17T00:59:35.254Z,98631.16
2022-08-17T01:02:04.621Z,98632.97
2022-08-17T01:04:33.642Z,98637.53
2022-08-17T01:07:02.420Z,98634.69
2022-08-17T01:09:31.540Z,98639.53
2022-08-17T01:11:59.799Z,98642.78
2022-08-17T01:14:27.652Z,98636.94
2022-08-17T01:16:57.533Z,98637.88
2022-08-17T01:19:29.004Z,98645.09
2022-08-17T01:22:11.940Z,98649.16
2022-08-17T01:24:43.121Z,98645.69
2022-08-17T01:27:13.923Z,98649.66
2022-08-17T01:29:45.766Z,98646.66
2022-08-17T01:32:14.971Z,98649.69
2022-08-17T01:34:45.525Z,98648.31
2022-08-17T01:37:20.172Z,98649.19
2022-08-17T01:39:56.447Z,98650.00
2022-08-17T01:42:38.244Z,98641.44
2022-08-17T01:45:13.813Z,98646.88
2022-08-17T01:47:42.172Z,98653.75
2022-08-17T01:50:16.015Z,98648.25
2022-08-17T01:52:45.730Z,98652.75
2022-08-17T01:55:17.040Z,98653.38
2022-08-17T01:57:48.152Z,98647.78
2022-08-17T02:00:16.300Z,98657.00
2022-08-17T02:02:46.018Z,98653.41
2022-08-17T02:05:14.179Z,98661.00
2022-08-17T02:07:59.530Z,98653.75
2022-08-17T02:10:34.095Z,98659.75
2022-08-17T02:13:04.347Z,98653.03
2022-08-17T02:15:33.711Z,98640.91
2022-08-17T02:18:03.390Z,98651.06
2022-08-17T02:20:42.228Z,98648.09
2022-08-17T02:23:13.222Z,98647.44
2022-08-17T02:25:43.583Z,98636.16
2022-08-17T02:28:12.633Z,98638.31
2022-08-17T02:31:01.816Z,98641.06
2022-08-17T02:33:42.988Z,98640.66
2022-08-17T02:36:12.635Z,98644.13
2022-08-17T02:38:41.512Z,98646.81
2022-08-17T02:41:09.458Z,98642.59
2022-08-17T02:43:37.637Z,98648.50
2022-08-17T02:46:06.034Z,98648.53
2022-08-17T02:48:33.870Z,98644.16
2022-08-17T02:51:01.753Z,98634.69
2022-08-17T02:53:35.842Z,98645.66
2022-08-17T02:56:04.950Z,98641.72
2022-08-17T02:58:35.808Z,98641.16
2022-08-17T03:01:09.049Z,98646.34
2022-08-17T03:03:37.993Z,98643.50
2022-08-17T03:06:06.256Z,98648.81
2022-08-17T03:08:34.473Z,98653.44
2022-08-17T03:11:02.562Z,98644.84
2022-08-17T03:13:31.394Z,98660.03
2022-08-17T03:15:59.780Z,98660.47
2022-08-17T03:18:28.290Z,98661.34
2022-08-17T03:20:59.679Z,98667.63
2022-08-17T03:23:29.582Z,98657.66
2022-08-17T03:25:57.947Z,98659.63
2022-08-17T03:28:26.449Z,98667.63
2022-08-17T03:30:54.813Z,98656.94
2022-08-17T03:33:23.224Z,98663.19
2022-08-17T03:35:51.998Z,98667.72
2022-08-17T03:38:20.605Z,98664.25
2022-08-17T03:40:57.713Z,98659.31
2022-08-17T03:43:32.085Z,98662.25
2022-08-17T03:46:34.947Z,98654.94
2022-08-17T03:49:24.536Z,98654.16
2022-08-17T03:52:15.032Z,98668.03
2022-08-17T03:55:03.410Z,98667.59
2022-08-17T03:57:32.190Z,98667.16
2022-08-17T04:00:00.333Z,98672.88
2022-08-17T04:02:31.698Z,98669.56
2022-08-17T04:05:00.102Z,98668.78
2022-08-17T04:07:29.880Z,98678.97
2022-08-17T04:09:59.637Z,98670.53
2022-08-17T04:12:31.550Z,98676.69
2022-08-17T04:14:59.532Z,98684.72
2022-08-17T04:17:29.213Z,98686.81
2022-08-17T04:19:57.373Z,98694.75
2022-08-17T04:22:30.894Z,98689.56
2022-08-17T04:25:10.569Z,98689.50
2022-08-17T04:27:38.371Z,98694.22
2022-08-17T04:30:10.300Z,98690.78
2022-08-17T04:33:03.604Z,98687.81
2022-08-17T04:35:43.960Z,98691.00
2022-08-17T04:38:16.742Z,98694.94
2022-08-17T04:41:03.812Z,98697.41
2022-08-17T04:43:33.041Z,98693.78
2022-08-17T04:46:06.536Z,98691.66
2022-08-17T04:48:37.667Z,98691.72
2022-08-17T04:51:32.380Z,98689.81
2022-08-17T04:54:05.602Z,98692.84
2022-08-17T04:56:33.843Z,98691.94
2022-08-17T04:59:09.111Z,98690.94
2022-08-17T05:01:39.359Z,98693.62
2022-08-17T05:04:21.476Z,98704.06
2022-08-17T05:06:58.092Z,98715.94
2022-08-17T05:09:25.858Z,98713.28
2022-08-17T05:11:53.604Z,98721.19
2022-08-17T05:14:32.349Z,98726.69
2022-08-17T05:17:09.363Z,98721.94
2022-08-17T05:19:39.569Z,98726.63
2022-08-17T05:22:07.425Z,98725.38
2022-08-17T05:24:42.618Z,98724.53
2022-08-17T05:27:19.078Z,98722.81
2022-08-17T05:29:47.093Z,98727.19
2022-08-17T05:32:47.897Z,98719.81
2022-08-17T05:35:04.445Z,98726.22
2022-08-17T05:37:32.243Z,98720.53
2022-08-17T05:40:00.107Z,98722.00
2022-08-17T05:42:28.313Z,98727.97
2022-08-17T05:44:58.737Z,98722.47
2022-08-17T05:47:28.711Z,98725.72
2022-08-17T05:49:58.685Z,98728.28
2022-08-17T05:52:49.571Z,98729.59
2022-08-17T05:55:47.994Z,98735.75
2022-08-17T05:58:39.588Z,98728.81
2022-08-17T06:01:13.838Z,98730.25
2022-08-17T06:04:11.203Z,98733.06
2022-08-17T06:06:48.458Z,98733.22
2022-08-17T06:09:38.602Z,98733.53
2022-08-17T06:12:54.724Z,98732.94
2022-08-17T06:15:45.566Z,98732.44
2022-08-17T06:18:18.544Z,98732.25
2022-08-17T06:21:05.382Z,98728.81
2022-08-17T06:23:42.018Z,98736.34
2022-08-17T06:26:25.911Z,98734.19
2022-08-17T06:29:24.842Z,98736.00
2022-08-17T06:31:53.063Z,98733.47
2022-08-17T06:34:21.171Z,98734.19
2022-08-17T06:37:19.140Z,98740.38
2022-08-17T06:40:02.395Z,98751.47
2022-08-17T06:43:04.981Z,98748.34
2022-08-17T06:45:43.359Z,98751.94
2022-08-17T06:48:28.170Z,98754.78
2022-08-17T06:51:02.146Z,98758.59
2022-08-17T06:53:41.202Z,98764.72
2022-08-17T06:56:13.267Z,98764.19
2022-08-17T06:58:43.750Z,98760.34
2022-08-17T07:01:23.590Z,98765.06
2022-08-17T07:03:59.332Z,98771.06
2022-08-17T07:06:38.860Z,98762.28
2022-08-17T07:09:14.874Z,98760.31
2022-08-17T07:12:08.722Z,98764.09
2022-08-17T07:14:41.140Z,98767.28
2022-08-17T07:17:19.349Z,98755.75
2022-08-17T07:19:51.382Z,98760.56
2022-08-17T07:22:59.996Z,98767.19
2022-08-17T07:25:30.833Z,98764.03
2022-08-17T07:28:06.916Z,98757.09
2022-08-17T07:30:45.695Z,98760.22
2022-08-17T07:33:25.281Z,98762.22
2022-08-17T07:35:53.722Z,98761.41
2022-08-17T07:38:30.478Z,98766.34
2022-08-17T07:41:02.955Z,98761.66
2022-08-17T07:43:41.592Z,98762.69
2022-08-17T07:46:42.661Z,98759.00
2022-08-17T07:49:10.962Z,98755.06
2022-08-17T07:51:48.561Z,98756.34
2022-08-17T07:54:22.892Z,98764.47
2022-08-17T07:57:03.365Z,98762.50
2022-08-17T07:59:34.773Z,98768.47
2022-08-17T08:02:31.718Z,98770.78
2022-08-17T08:05:06.819Z,98769.66
2022-08-17T08:07:58.077Z,98766.31
2022-08-17T08:10:38.740Z,98760.97
2022-08-17T08:13:23.956Z,98761.63
2022-08-17T08:15:57.712Z,98768.38
2022-08-17T08:18:56.038Z,98766.16
2022-08-17T08:21:48.503Z,98758.09
2022-08-17T08:24:36.943Z,98765.63
2022-08-17T08:27:17.223Z,98775.47
2022-08-17T08:30:09.913Z,98771.94
2022-08-17T08:33:06.660Z,98761.09
2022-08-17T08:35:53.903Z,98763.56
2022-08-17T08:38:36.652Z,98762.03
2022-08-17T08:41:41.171Z,98768.84
2022-08-17T08:45:00.922Z,98758.91
2022-08-17T08:47:54.115Z,98763.91
2022-08-17T08:50:47.793Z,98763.59
2022-08-17T08:53:32.385Z,98763.16
2022-08-17T08:56:07.590Z,98769.53
2022-08-17T08:59:01.475Z,98766.16
2022-08-17T09:01:48.138Z,98758.63
2022-08-17T09:05:02.830Z,98766.53
2022-08-17T09:07:56.337Z,98760.94
2022-08-17T09:11:06.633Z,98759.88
2022-08-17T09:14:21.833Z,98764.06
2022-08-17T09:16:56.115Z,98758.19
2022-08-17T09:19:52.113Z,98757.16
2022-08-17T09:22:36.064Z,98769.25
2022-08-17T09:25:11.316Z,98770.31
2022-08-17T09:27:51.321Z,98760.69
2022-08-17T09:30:20.664Z,98765.13
2022-08-17T09:32:55.443Z,98761.72
2022-08-17T09:35:36.663Z,98761.56
2022-08-17T09:38:14.081Z,98760.44
2022-08-17T09:41:20.023Z,98766.50
2022-08-17T09:44:03.354Z,98766.37
2022-08-17T09:46:38.900Z,98753.78
2022-08-17T09:49:53.606Z,98756.47
2022-08-17T09:52:26.953Z,98755.22
2022-08-17T09:54:56.981Z,98759.25
2022-08-17T09:57:43.625Z,98764.88
2022-08-17T10:00:18.125Z,98748.56
2022-08-17T10:03:09.935Z,98761.09
2022-08-17T10:05:56.429Z,98762.81
2022-08-17T10:08:53.326Z,98765.75
2022-08-17T10:11:50.351Z,98760.50
2022-08-17T10:14:36.596Z,98762.31
2022-08-17T10:17:36.747Z,98761.00
2022-08-17T10:20:19.222Z,98760.50
2022-08-17T10:23:27.258Z,98760.31
2022-08-17T10:26:15.612Z,98760.16
2022-08-17T10:28:49.415Z,98754.34
2022-08-17T10:31:41.021Z,98751.13
2022-08-17T10:34:42.913Z,98743.84
2022-08-17T10:37:19.933Z,98750.72
2022-08-17T10:40:07.557Z,98760.88
2022-08-17T10:42:43.923Z,98751.22
2022-08-17T10:45:29.813Z,98739.88
2022-08-17T10:48:07.631Z,98741.34
2022-08-17T10:51:03.763Z,98742.94
2022-08-17T10:53:32.036Z,98737.50
2022-08-17T10:56:12.275Z,98743.66
2022-08-17T10:58:55.510Z,98732.44
2022-08-17T11:01:29.650Z,98736.75
2022-08-17T11:04:18.354Z,98725.75
2022-08-17T11:07:02.370Z,98735.91
2022-08-17T11:09:39.808Z,98730.31
2022-08-17T11:12:20.107Z,98730.78
2022-08-17T11:15:16.273Z,98727.22
2022-08-17T11:18:05.504Z,98727.63
2022-08-17T11:20:41.638Z,98722.06
2022-08-17T11:23:39.184Z,98730.63
2022-08-17T11:26:22.232Z,98725.75
2022-08-17T11:28:52.833Z,98721.59
2022-08-17T11:31:45.175Z,98721.44
2022-08-17T11:34:23.540Z,98717.53
2022-08-17T11:37:30.291Z,98708.88
2022-08-17T11:40:18.262Z,98707.34
2022-08-17T11:42:52.526Z,98713.25
2022-08-17T11:45:47.165Z,98714.28
2022-08-17T11:49:08.973Z,98708.97
2022-08-17T11:52:01.477Z,98696.22
2022-08-17T11:54:48.923Z,98692.75
2022-08-17T11:57:42.700Z,98693.38
2022-08-17T12:00:45.224Z,98695.59
2022-08-17T12:03:54.130Z,98684.09
2022-08-17T12:06:30.287Z,98688.84
2022-08-17T12:09:13.233Z,98685.19
2022-08-17T12:12:14.435Z,98681.59
2022-08-17T12:15:10.170Z,98681.84
2022-08-17T12:17:40.194Z,98674.31
2022-08-17T12:20:23.231Z,98680.59
2022-08-17T12:23:04.915Z,98679.59
2022-08-17T12:25:42.422Z,98667.91
2022-08-17T12:28:22.968Z,98684.25
2022-08-17T12:30:52.491Z,98675.66
2022-08-17T12:33:25.778Z,98680.53
2022-08-17T12:36:05.345Z,98687.88
2022-08-17T12:38:36.259Z,98676.25
2022-08-17T12:41:27.379Z,98670.25
2022-08-17T12:44:16.861Z,98663.88
2022-08-17T12:46:55.966Z,98668.97
2022-08-17T12:49:26.696Z,98669.66
2022-08-17T12:52:05.913Z,98674.63
2022-08-17T12:54:52.599Z,98670.28
2022-08-17T12:57:24.930Z,98665.53
2022-08-17T12:59:59.776Z,98655.62
2022-08-17T13:02:32.961Z,98677.53
2022-08-17T13:05:01.326Z,98669.59
2022-08-17T13:07:44.719Z,98668.88
2022-08-17T13:10:32.129Z,98666.81
2022-08-17T13:13:06.531Z,98666.59
2022-08-17T13:15:44.477Z,98668.91
2022-08-17T13:18:35.515Z,98667.66
2022-08-17T13:21:03.420Z,98657.44
2022-08-17T13:23:33.101Z,98649.72
2022-08-17T13:26:07.532Z,98652.25
2022-08-17T13:28:37.691Z,98651.41
2022-08-17T13:31:32.461Z,98651.47
2022-08-17T13:34:26.925Z,98646.50
2022-08-17T13:37:27.591Z,98657.41
2022-08-17T13:40:12.005Z,98659.87
2022-08-17T13:42:51.799Z,98644.03
2022-08-17T13:45:35.477Z,98650.69
2022-08-17T13:48:14.030Z,98643.63
2022-08-17T13:50:45.727Z,98647.38
2022-08-17T13:53:22.998Z,98651.22
2022-08-17T13:55:55.383Z,98639.06
2022-08-17T13:58:29.000Z,98642.13
2022-08-17T14:00:57.270Z,98636.09
2022-08-17T14:03:26.614Z,98638.94
2022-08-17T14:05:54.472Z,98626.88
2022-08-17T14:08:22.451Z,98641.72
2022-08-17T14:10:58.422Z,98639.84
2022-08-17T14:13:26.314Z,98641.12
2022-08-17T14:15:56.712Z,98639.63
2022-08-17T14:18:35.489Z,98635.69
2022-08-17T14:21:13.553Z,98636.91
2022-08-17T14:23:43.674Z,98635.69
2022-08-17T14:26:23.378Z,98638.97
2022-08-17T14:28:54.647Z,98633.34
2022-08-17T14:31:25.223Z,98639.44
2022-08-17T14:33:53.432Z,98642.25
2022-08-17T14:36:21.263Z,98637.34
2022-08-17T14:38:49.302Z,98631.66
2022-08-17T14:41:22.056Z,98634.81
2022-08-17T14:43:54.184Z,98633.47
2022-08-17T14:46:22.021Z,98640.22
2022-08-17T14:48:57.157Z,98632.28
2022-08-17T14:51:29.083Z,98628.09
2022-08-17T14:53:57.568Z,98637.03
2022-08-17T14:56:26.285Z,98625.59
2022-08-17T14:58:54.462Z,98621.63
2022-08-17T15:01:24.698Z,98619.59
2022-08-17T15:03:54.174Z,98623.50
2022-08-17T15:06:22.701Z,98613.50
2022-08-17T15:08:51.092Z,98624.34
2022-08-17T15:11:19.032Z,98616.97
2022-08-17T15:13:53.071Z,98620.19
2022-08-17T15:16:21.120Z,98622.88
2022-08-17T15:18:50.268Z,98622.97
2022-08-17T15:21:18.342Z,98621.97
2022-08-17T15:23:46.866Z,98621.50
2022-08-17T15:26:15.031Z,98625.78
2022-08-17T15:28:42.913Z,98622.31
2022-08-17T15:31:10.785Z,98624.94
2022-08-17T15:33:39.100Z,98623.19
2022-08-17T15:36:08.103Z,98620.00
2022-08-17T15:38:39.765Z,98625.06
2022-08-17T15:41:10.312Z,98626.94
2022-08-17T15:43:38.124Z,98631.91
2022-08-17T15:46:12.546Z,98629.53
2022-08-17T15:48:42.591Z,98626.06
2022-08-17T15:51:15.114Z,98635.16
2022-08-17T15:53:46.036Z,98632.09
2022-08-17T15:56:15.219Z,98637.84
2022-08-17T15:58:44.921Z,98629.41
2022-08-17T16:01:14.977Z,98629.81
2022-08-17T16:04:04.835Z,98624.66
2022-08-17T16:06:34.942Z,98631.34
2022-08-17T16:09:03.263Z,98627.97
2022-08-17T16:11:30.999Z,98620.41
2022-08-17T16:13:58.917Z,98624.88
2022-08-17T16:16:29.150Z,98619.88
2022-08-17T16:18:58.588Z,98620.81
2022-08-17T16:21:27.745Z,98618.06
2022-08-17T16:24:01.628Z,98624.72
2022-08-17T16:26:31.575Z,98623.38
2022-08-17T16:29:01.373Z,98622.88
2022-08-17T16:31:30.644Z,98620.47
2022-08-17T16:34:15.674Z,98619.91
2022-08-17T16:36:53.703Z,98620.13
2022-08-17T16:39:26.262Z,98610.47
2022-08-17T16:41:56.251Z,98610.97
2022-08-17T16:44:26.137Z,98614.22
2022-08-17T16:46:54.309Z,98611.53
2022-08-17T16:49:35.225Z,98611.00
2022-08-17T16:52:07.166Z,98615.31
2022-08-17T16:54:38.141Z,98609.00
2022-08-17T16:57:06.445Z,98611.63
2022-08-17T16:59:40.869Z,98622.63
2022-08-17T17:02:17.273Z,98617.88
2022-08-17T17:05:00.177Z,98615.63
2022-08-17T17:07:34.976Z,98616.22
2022-08-17T17:10:07.128Z,98619.25
2022-08-17T17:13:01.886Z,98621.16
2022-08-17T17:15:29.080Z,98621.69
2022-08-17T17:18:06.879Z,98628.44
2022-08-17T17:20:43.818Z,98625.19
2022-08-17T17:23:35.903Z,98629.09
2022-08-17T17:26:12.865Z,98627.13
2022-08-17T17:29:11.413Z,98636.75
2022-08-17T17:31:51.444Z,98636.91
2022-08-17T17:34:19.923Z,98636.03
2022-08-17T17:36:50.064Z,98638.97
2022-08-17T17:39:20.791Z,98645.41
2022-08-17T17:41:56.480Z,98642.00
2022-08-17T17:44:42.892Z,98644.31
2022-08-17T17:47:13.275Z,98651.56
2022-08-17T17:49:46.892Z,98657.69
2022-08-17T17:52:19.502Z,98653.38
2022-08-17T17:55:06.219Z,98655.62
2022-08-17T17:57:59.631Z,98657.66
2022-08-17T18:00:39.861Z,98664.25
2022-08-17T18:03:20.065Z,98665.97
2022-08-17T18:06:01.246Z,98663.16
2022-08-17T18:09:03.031Z,98670.22
2022-08-17T18:11:46.537Z,98670.31
2022-08-17T18:14:45.054Z,98678.53
2022-08-17T18:17:14.443Z,98683.63
2022-08-17T18:19:42.532Z,98687.28
2022-08-17T18:22:23.721Z,98685.88
2022-08-17T18:24:57.351Z,98691.22
2022-08-17T18:27:40.090Z,98689.84
2022-08-17T18:30:11.037Z,98693.75
2022-08-17T18:32:43.807Z,98690.13
2022-08-17T18:35:11.929Z,98697.69
2022-08-17T18:37:51.680Z,98691.88
2022-08-17T18:40:20.338Z,98699.34
2022-08-17T18:43:08.825Z,98691.94
2022-08-17T18:45:47.681Z,98692.63
2022-08-17T18:48:33.113Z,98699.69
2022-08-17T18:51:05.512Z,98695.63
2022-08-17T18:53:41.553Z,98703.53
2022-08-17T18:56:31.335Z,98705.97
2022-08-17T18:59:07.114Z,98706.44
2022-08-17T19:02:15.323Z,98707.31
2022-08-17T19:05:08.587Z,98706.47
2022-08-17T19:07:38.762Z,98702.72
2022-08-17T19:10:31.415Z,98708.69
2022-08-17T19:13:12.738Z,98714.66
2022-08-17T19:16:13.055Z,98718.44
2022-08-17T19:19:04.842Z,98703.56
2022-08-17T19:21:40.610Z,98708.22
2022-08-17T19:24:14.313Z,98711.69
2022-08-17T19:26:54.747Z,98708.75
2022-08-17T19:29:39.034Z,98719.91
2022-08-17T19:32:08.240Z,98713.37
2022-08-17T19:34:37.601Z,98718.56
2022-08-17T19:37:17.793Z,98717.19
2022-08-17T19:39:54.746Z,98712.41
2022-08-17T19:43:01.413Z,98716.34
2022-08-17T19:45:35.154Z,98705.81
2022-08-17T19:48:38.468Z,98718.13
2022-08-17T19:51:10.942Z,98712.69
2022-08-17T19:54:04.981Z,98714.81
2022-08-17T19:57:03.521Z,98716.25
2022-08-17T19:59:51.754Z,98717.72
2022-08-17T20:02:26.082Z,98710.19
2022-08-17T20:04:58.333Z,98715.53
2022-08-17T20:07:38.703Z,98715.78
2022-08-17T20:10:10.144Z,98712.87
2022-08-17T20:12:39.745Z,98718.19
2022-08-17T20:15:18.102Z,98714.25
2022-08-17T20:17:47.269Z,98704.56
2022-08-17T20:20:46.896Z,98696.22
2022-08-17T20:23:54.154Z,98709.44
2022-08-17T20:26:27.767Z,98711.22
2022-08-17T20:29:14.009Z,98707.03
2022-08-17T20:32:23.017Z,98709.50
2022-08-17T20:35:04.109Z,98708.66
2022-08-17T20:37:34.825Z,98717.16
2022-08-17T20:40:09.426Z,98710.84
2022-08-17T20:42:37.798Z,98702.94
2022-08-17T20:45:20.704Z,98702.47
2022-08-17T20:48:18.458Z,98695.56
2022-08-17T20:50:43.650Z,98702.56
2022-08-17T20:53:15.113Z,98691.41
2022-08-17T20:55:52.225Z,98695.41
2022-08-17T20:58:30.009Z,98696.00
2022-08-17T21:00:59.172Z,98693.88
2022-08-17T21:03:27.433Z,98698.19
2022-08-17T21:06:17.653Z,98702.66
2022-08-17T21:09:15.852Z,98701.19
2022-08-17T21:11:57.221Z,98703.38
2022-08-17T21:14:38.242Z,98700.78
2022-08-17T21:17:29.781Z,98699.06
2022-08-17T21:20:32.290Z,98692.38
2022-08-17T21:23:18.002Z,98699.47
2022-08-17T21:25:58.087Z,98694.62
2022-08-17T21:28:37.954Z,98704.00
2022-08-17T21:31:46.681Z,98704.94
2022-08-17T21:34:15.294Z,98714.66
2022-08-17T21:36:44.763Z,98710.50
2022-08-17T21:39:15.743Z,98708.16
2022-08-17T21:41:57.596Z,98710.12
2022-08-17T21:44:37.473Z,98704.22
2022-08-17T21:47:25.283Z,98704.22
2022-08-17T21:49:54.373Z,98706.16
2022-08-17T21:52:24.833Z,98704.97
2022-08-17T21:54:55.355Z,98716.88
2022-08-17T21:57:29.904Z,98715.34
2022-08-17T22:00:00.582Z,98726.16
2022-08-17T22:02:32.643Z,98726.09
2022-08-17T22:05:06.931Z,98725.00
2022-08-17T22:07:41.723Z,98732.28
2022-08-17T22:10:34.794Z,98734.34
2022-08-17T22:13:16.951Z,98738.47
2022-08-17T22:15:48.634Z,98739.47
2022-08-17T22:18:27.693Z,98746.97
2022-08-17T22:29:53.289Z,98753.56
2022-08-17T22:32:32.933Z,98751.22
2022-08-17T22:35:19.232Z,98751.66
2022-08-17T22:37:47.454Z,98753.38
2022-08-17T22:40:31.232Z,98755.41
2022-08-17T22:43:01.203Z,98755.75
2022-08-17T22:45:33.694Z,98756.38
2022-08-17T22:48:02.233Z,98756.84
2022-08-17T22:50:31.070Z,98757.41
2022-08-17T23:01:32.796Z,98774.06
2022-08-17T23:04:16.164Z,98779.09
2022-08-17T23:06:43.825Z,98783.50
2022-08-17T23:09:11.923Z,98779.06
2022-08-17T23:11:51.262Z,98775.28
2022-08-17T23:14:20.646Z,98789.41
2022-08-17T23:16:50.418Z,98783.53
2022-08-17T23:19:21.314Z,98781.59
2022-08-17T23:21:51.154Z,98783.25
2022-08-17T23:24:26.035Z,98777.75
2022-08-17T23:26:57.375Z,98781.25
2022-08-17T23:29:26.424Z,98783.75
2022-08-17T23:31:55.219Z,98778.00
2022-08-17T23:34:25.802Z,98775.50
2022-08-17T23:36:54.596Z,98786.09
2022-08-17T23:39:27.409Z,98783.44
2022-08-17T23:41:58.145Z,98782.41
2022-08-17T23:44:27.006Z,98779.84
2022-08-17T23:46:57.393Z,98765.41
2022-08-17T23:49:29.047Z,98752.72
2022-08-17T23:52:00.127Z,98768.03
2022-08-17T23:54:34.434Z,98770.16
2022-08-17T23:57:05.009Z,98772.69
2022-08-17T23:59:34.014Z,98759.50
